createdAt,value
2022-10-07T00:00:18.323Z,21.03
2022-10-07T00:01:18.408Z,21.00
2022-10-07T00:02:18.382Z,21.01
2022-10-07T00:03:18.287Z,21.01
2022-10-07T00:04:18.314Z,21.00
2022-10-07T00:05:18.322Z,21.01
2022-10-07T00:06:18.356Z,21.00
2022-10-07T00:07:18.366Z,21.01
2022-10-07T00:08:18.396Z,20.98
2022-10-07T00:09:18.408Z,20.98
2022-10-07T00:10:18.397Z,20.98
2022-10-07T00:11:18.421Z,20.96
2022-10-07T00:12:18.466Z,20.97
2022-10-07T00:13:18.436Z,20.96
2022-10-07T00:14:18.489Z,20.96
2022-10-07T00:15:18.434Z,20.97
2022-10-07T00:16:18.523Z,20.97
2022-10-07T00:17:18.448Z,20.96
2022-10-07T00:18:18.466Z,20.96
2022-10-07T00:19:18.460Z,20.94
2022-10-07T00:20:18.473Z,20.94
2022-10-07T00:21:18.460Z,20.96
2022-10-07T00:22:18.479Z,20.93
2022-10-07T00:23:18.488Z,20.94
2022-10-07T00:24:18.503Z,20.94
2022-10-07T00:25:18.499Z,20.93
2022-10-07T00:26:18.519Z,20.91
2022-10-07T00:27:18.535Z,20.90
2022-10-07T00:28:18.590Z,20.90
2022-10-07T00:29:18.570Z,20.90
2022-10-07T00:30:18.625Z,20.88
2022-10-07T00:31:18.652Z,20.87
2022-10-07T00:32:18.583Z,20.87
2022-10-07T00:33:18.607Z,20.85
2022-10-07T00:34:18.623Z,20.87
2022-10-07T00:35:18.600Z,20.85
2022-10-07T00:36:18.628Z,20.85
2022-10-07T00:37:18.613Z,20.88
2022-10-07T00:38:18.644Z,20.87
2022-10-07T00:39:18.652Z,20.90
2022-10-07T00:40:18.662Z,20.90
2022-10-07T00:41:18.694Z,20.90
2022-10-07T00:42:18.714Z,20.88
2022-10-07T00:43:18.705Z,20.88
2022-10-07T00:44:18.721Z,20.87
2022-10-07T00:45:18.730Z,20.85
2022-10-07T00:46:18.764Z,20.83
2022-10-07T00:47:18.697Z,20.83
2022-10-07T00:48:18.704Z,20.83
2022-10-07T00:49:18.751Z,20.85
2022-10-07T00:50:18.775Z,20.83
2022-10-07T00:51:18.760Z,20.83
2022-10-07T00:52:18.833Z,20.82
2022-10-07T00:53:18.762Z,20.83
2022-10-07T00:54:18.768Z,20.82
2022-10-07T00:55:18.799Z,20.79
2022-10-07T00:56:18.821Z,20.82
2022-10-07T00:57:18.870Z,20.82
2022-10-07T00:58:18.848Z,20.82
2022-10-07T00:59:18.885Z,20.81
2022-10-07T01:00:18.906Z,20.81
2022-10-07T01:01:18.937Z,20.79
2022-10-07T01:02:19.060Z,20.76
2022-10-07T01:03:18.937Z,20.76
2022-10-07T01:04:18.965Z,20.78
2022-10-07T01:05:18.996Z,20.79
2022-10-07T01:06:19.015Z,20.79
2022-10-07T01:07:19.025Z,20.78
2022-10-07T01:08:19.023Z,20.78
2022-10-07T01:09:19.030Z,20.78
2022-10-07T01:10:19.054Z,20.78
2022-10-07T01:11:19.053Z,20.76
2022-10-07T01:12:19.112Z,20.76
2022-10-07T01:13:19.108Z,20.76
2022-10-07T01:14:19.110Z,20.75
2022-10-07T01:15:19.129Z,20.75
2022-10-07T01:16:19.207Z,20.78
2022-10-07T01:17:19.179Z,20.76
2022-10-07T01:18:19.225Z,20.75
2022-10-07T01:19:19.173Z,20.71
2022-10-07T01:20:19.194Z,20.69
2022-10-07T01:21:19.224Z,20.71
2022-10-07T01:22:19.241Z,20.72
2022-10-07T01:23:19.276Z,20.71
2022-10-07T01:24:19.279Z,20.71
2022-10-07T01:25:19.316Z,20.71
2022-10-07T01:26:19.334Z,20.72
2022-10-07T01:27:19.370Z,20.71
2022-10-07T01:28:19.436Z,20.68
2022-10-07T01:29:19.394Z,20.68
2022-10-07T01:30:19.392Z,20.68
2022-10-07T01:31:19.480Z,20.71
2022-10-07T01:32:19.430Z,20.71
2022-10-07T01:33:19.442Z,20.69
2022-10-07T01:34:19.471Z,20.69
2022-10-07T01:35:19.468Z,20.69
2022-10-07T01:36:19.481Z,20.69
2022-10-07T01:37:19.503Z,20.69
2022-10-07T01:38:19.544Z,20.68
2022-10-07T01:39:19.520Z,20.66
2022-10-07T01:40:19.528Z,20.66
2022-10-07T01:41:19.555Z,20.63
2022-10-07T01:42:19.572Z,20.63
2022-10-07T01:43:19.593Z,20.64
2022-10-07T01:44:19.621Z,20.66
2022-10-07T01:45:19.671Z,20.64
2022-10-07T01:46:19.779Z,20.64
2022-10-07T01:47:19.702Z,20.64
2022-10-07T01:48:19.730Z,20.64
2022-10-07T01:49:19.750Z,20.64
2022-10-07T01:50:19.769Z,20.63
2022-10-07T01:51:19.768Z,20.63
2022-10-07T01:52:19.786Z,20.64
2022-10-07T01:53:19.789Z,20.61
2022-10-07T01:54:19.820Z,20.64
2022-10-07T01:55:19.843Z,20.63
2022-10-07T01:56:19.870Z,20.63
2022-10-07T01:57:19.898Z,20.63
2022-10-07T01:58:19.966Z,20.64
2022-10-07T01:59:19.925Z,20.63
2022-10-07T02:00:19.907Z,20.63
2022-10-07T02:01:20.005Z,20.61
2022-10-07T02:02:19.913Z,20.61
2022-10-07T02:03:19.997Z,20.60
2022-10-07T02:04:19.960Z,20.58
2022-10-07T02:05:19.965Z,20.61
2022-10-07T02:06:20.015Z,20.63
2022-10-07T02:07:20.016Z,20.61
2022-10-07T02:08:20.035Z,20.60
2022-10-07T02:09:20.071Z,20.61
2022-10-07T02:10:20.107Z,20.57
2022-10-07T02:11:20.095Z,20.60
2022-10-07T02:12:20.104Z,20.57
2022-10-07T02:13:20.132Z,20.58
2022-10-07T02:14:20.147Z,20.57
2022-10-07T02:15:20.176Z,20.57
2022-10-07T02:16:20.285Z,20.57
2022-10-07T02:17:20.205Z,20.57
2022-10-07T02:18:20.226Z,20.57
2022-10-07T02:19:20.236Z,20.58
2022-10-07T02:20:20.239Z,20.57
2022-10-07T02:21:20.278Z,20.57
2022-10-07T02:22:20.279Z,20.57
2022-10-07T02:23:20.289Z,20.56
2022-10-07T02:24:20.296Z,20.57
2022-10-07T02:25:20.320Z,20.57
2022-10-07T02:26:20.350Z,20.57
2022-10-07T02:27:20.335Z,20.56
2022-10-07T02:28:20.614Z,20.56
2022-10-07T02:29:20.348Z,20.54
2022-10-07T02:30:20.366Z,20.53
2022-10-07T02:31:20.453Z,20.51
2022-10-07T02:32:20.384Z,20.51
2022-10-07T02:33:20.379Z,20.53
2022-10-07T02:34:20.455Z,20.53
2022-10-07T02:35:20.401Z,20.53
2022-10-07T02:36:20.429Z,20.53
2022-10-07T02:37:20.482Z,20.53
2022-10-07T02:38:20.530Z,20.53
2022-10-07T02:39:20.491Z,20.53
2022-10-07T02:40:20.531Z,20.53
2022-10-07T02:41:20.517Z,20.53
2022-10-07T02:42:20.529Z,20.53
2022-10-07T02:43:20.538Z,20.53
2022-10-07T02:44:20.548Z,20.53
2022-10-07T02:45:25.882Z,20.54
2022-10-07T02:46:20.625Z,20.54
2022-10-07T02:47:20.580Z,20.53
2022-10-07T02:48:20.584Z,20.51
2022-10-07T02:49:20.571Z,20.51
2022-10-07T02:50:20.589Z,20.51
2022-10-07T02:51:21.432Z,20.48
2022-10-07T02:52:20.599Z,20.51
2022-10-07T02:53:20.642Z,20.53
2022-10-07T02:54:20.680Z,20.53
2022-10-07T02:55:20.677Z,20.53
2022-10-07T02:56:20.699Z,20.51
2022-10-07T02:57:20.728Z,20.51
2022-10-07T02:58:20.769Z,20.54
2022-10-07T02:59:20.748Z,20.53
2022-10-07T03:00:20.799Z,20.51
2022-10-07T03:01:20.849Z,20.50
2022-10-07T03:02:20.760Z,20.48
2022-10-07T03:03:20.922Z,20.51
2022-10-07T03:04:20.806Z,20.50
2022-10-07T03:05:20.828Z,20.48
2022-10-07T03:06:20.851Z,20.48
2022-10-07T03:07:20.873Z,20.42
2022-10-07T03:08:20.912Z,20.46
2022-10-07T03:09:20.941Z,20.48
2022-10-07T03:10:21.011Z,20.46
2022-10-07T03:11:20.960Z,20.46
2022-10-07T03:12:20.985Z,20.48
2022-10-07T03:13:21.030Z,20.50
2022-10-07T03:14:21.012Z,20.50
2022-10-07T03:15:21.034Z,20.50
2022-10-07T03:16:21.095Z,20.48
2022-10-07T03:17:21.034Z,20.50
2022-10-07T03:18:21.067Z,20.50
2022-10-07T03:19:21.046Z,20.51
2022-10-07T03:20:21.084Z,20.50
2022-10-07T03:21:21.098Z,20.50
2022-10-07T03:22:21.122Z,20.51
2022-10-07T03:23:21.143Z,20.51
2022-10-07T03:24:21.160Z,20.51
2022-10-07T03:25:21.200Z,20.51
2022-10-07T03:26:21.230Z,20.50
2022-10-07T03:27:21.245Z,20.50
2022-10-07T03:28:21.332Z,20.48
2022-10-07T03:29:21.288Z,20.48
2022-10-07T03:30:24.349Z,20.50
2022-10-07T03:31:21.349Z,20.48
2022-10-07T03:32:21.329Z,20.48
2022-10-07T03:33:21.368Z,20.48
2022-10-07T03:34:21.381Z,20.50
2022-10-07T03:35:21.396Z,20.48
2022-10-07T03:36:21.409Z,20.48
2022-10-07T03:37:21.398Z,20.50
2022-10-07T03:38:21.417Z,20.50
2022-10-07T03:39:21.400Z,20.46
2022-10-07T03:40:21.407Z,20.46
2022-10-07T03:41:21.424Z,20.44
2022-10-07T03:42:21.474Z,20.44
2022-10-07T03:43:21.686Z,20.46
2022-10-07T03:44:21.500Z,20.48
2022-10-07T03:45:21.523Z,20.48
2022-10-07T03:46:21.600Z,20.46
2022-10-07T03:47:21.577Z,20.44
2022-10-07T03:48:21.551Z,20.44
2022-10-07T03:49:21.557Z,20.44
2022-10-07T03:50:21.605Z,20.44
2022-10-07T03:51:21.635Z,20.46
2022-10-07T03:52:21.583Z,20.46
2022-10-07T03:53:21.602Z,20.50
2022-10-07T03:54:21.631Z,20.50
2022-10-07T03:55:21.649Z,20.48
2022-10-07T03:56:21.673Z,20.48
2022-10-07T03:57:21.714Z,20.50
2022-10-07T03:58:21.719Z,20.50
2022-10-07T03:59:21.722Z,20.53
2022-10-07T04:00:21.751Z,20.51
2022-10-07T04:01:21.778Z,20.50
2022-10-07T04:02:21.755Z,20.46
2022-10-07T04:03:21.816Z,20.46
2022-10-07T04:04:21.783Z,20.46
2022-10-07T04:05:21.820Z,20.46
2022-10-07T04:06:21.836Z,20.46
2022-10-07T04:07:21.895Z,20.46
2022-10-07T04:08:21.884Z,20.46
2022-10-07T04:09:21.915Z,20.46
2022-10-07T04:10:21.928Z,20.48
2022-10-07T04:11:21.948Z,20.46
2022-10-07T04:12:21.979Z,20.46
2022-10-07T04:13:21.997Z,20.50
2022-10-07T04:14:22.069Z,20.50
2022-10-07T04:15:22.023Z,20.50
2022-10-07T04:16:22.117Z,20.48
2022-10-07T04:17:22.055Z,20.48
2022-10-07T04:18:22.031Z,20.48
2022-10-07T04:19:22.054Z,20.48
2022-10-07T04:20:22.042Z,20.48
2022-10-07T04:21:22.077Z,20.48
2022-10-07T04:22:22.058Z,20.46
2022-10-07T04:23:22.079Z,20.48
2022-10-07T04:24:22.106Z,20.50
2022-10-07T04:25:22.135Z,20.50
2022-10-07T04:26:22.153Z,20.48
2022-10-07T04:27:46.750Z,20.50
2022-10-07T04:28:22.249Z,20.50
2022-10-07T04:29:22.181Z,20.50
2022-10-07T04:30:22.237Z,20.50
2022-10-07T04:31:22.316Z,20.48
2022-10-07T04:32:22.254Z,20.46
2022-10-07T04:33:22.286Z,20.46
2022-10-07T04:34:22.253Z,20.48
2022-10-07T04:35:22.280Z,20.46
2022-10-07T04:36:22.317Z,20.46
2022-10-07T04:37:22.547Z,20.46
2022-10-07T04:38:26.341Z,20.44
2022-10-07T04:39:29.932Z,20.46
2022-10-07T04:40:22.408Z,20.46
2022-10-07T04:41:22.428Z,20.42
2022-10-07T04:42:22.430Z,20.44
2022-10-07T04:43:22.480Z,20.42
2022-10-07T04:44:22.493Z,20.44
2022-10-07T04:45:22.480Z,20.44
2022-10-07T04:46:22.586Z,20.44
2022-10-07T04:47:22.516Z,20.41
2022-10-07T04:48:23.144Z,20.41
2022-10-07T04:49:22.494Z,20.42
2022-10-07T04:50:22.524Z,20.42
2022-10-07T04:51:22.541Z,20.42
2022-10-07T04:52:22.548Z,20.42
2022-10-07T04:53:22.572Z,20.42
2022-10-07T04:54:22.605Z,20.42
2022-10-07T04:55:22.624Z,20.42
2022-10-07T04:56:22.653Z,20.42
2022-10-07T04:57:22.673Z,20.42
2022-10-07T04:58:22.675Z,20.44
2022-10-07T04:59:24.453Z,20.44
2022-10-07T05:01:48.712Z,20.42
2022-10-07T05:02:48.622Z,20.42
2022-10-07T05:03:48.742Z,20.44
2022-10-07T05:04:48.718Z,20.44
2022-10-07T05:05:48.712Z,20.44
2022-10-07T05:06:48.771Z,20.42
2022-10-07T05:07:48.759Z,20.44
2022-10-07T05:08:48.792Z,20.41
2022-10-07T05:09:48.736Z,20.42
2022-10-07T05:10:48.790Z,20.44
2022-10-07T05:11:48.773Z,20.42
2022-10-07T05:12:51.499Z,20.42
2022-10-07T05:13:48.819Z,20.42
2022-10-07T05:14:48.788Z,20.41
2022-10-07T05:15:48.938Z,20.41
2022-10-07T05:16:48.827Z,20.40
2022-10-07T05:17:48.854Z,20.41
2022-10-07T05:18:48.885Z,20.41
2022-10-07T05:19:49.023Z,20.40
2022-10-07T05:20:48.873Z,20.38
2022-10-07T05:21:48.949Z,20.40
2022-10-07T05:22:48.970Z,20.40
2022-10-07T05:23:48.921Z,20.38
2022-10-07T05:24:48.891Z,20.40
2022-10-07T05:25:48.895Z,20.38
2022-10-07T05:26:48.933Z,20.40
2022-10-07T05:27:49.021Z,20.41
2022-10-07T05:28:48.920Z,20.41
2022-10-07T05:29:49.013Z,20.40
2022-10-07T05:30:49.015Z,20.41
2022-10-07T05:31:49.099Z,20.38
2022-10-07T05:32:48.994Z,20.38
2022-10-07T05:33:49.023Z,20.41
2022-10-07T05:34:48.997Z,20.40
2022-10-07T05:35:49.133Z,20.41
2022-10-07T05:36:49.029Z,20.40
2022-10-07T05:37:51.355Z,20.40
2022-10-07T05:38:49.038Z,20.38
2022-10-07T05:39:49.134Z,20.38
2022-10-07T05:40:49.047Z,20.38
2022-10-07T05:41:49.057Z,20.37
2022-10-07T05:42:49.087Z,20.40
2022-10-07T05:43:49.232Z,20.38
2022-10-07T05:44:49.122Z,20.37
2022-10-07T05:45:49.209Z,20.38
2022-10-07T05:46:49.165Z,20.38
2022-10-07T05:47:49.340Z,20.38
2022-10-07T05:48:49.217Z,20.38
2022-10-07T05:49:49.320Z,20.38
2022-10-07T05:50:49.404Z,20.38
2022-10-07T05:51:49.315Z,20.38
2022-10-07T05:52:49.231Z,20.38
2022-10-07T05:53:49.333Z,20.37
2022-10-07T05:54:49.421Z,20.35
2022-10-07T05:55:49.275Z,20.35
2022-10-07T05:56:49.274Z,20.35
2022-10-07T05:57:49.295Z,20.35
2022-10-07T05:58:49.375Z,20.35
2022-10-07T05:59:49.337Z,20.38
2022-10-07T06:00:49.336Z,20.40
2022-10-07T06:01:49.442Z,20.40
2022-10-07T06:02:49.544Z,20.38
2022-10-07T06:03:49.405Z,20.37
2022-10-07T06:04:49.411Z,20.38
2022-10-07T06:05:49.421Z,20.38
2022-10-07T06:06:49.474Z,20.38
2022-10-07T06:07:49.651Z,20.37
2022-10-07T06:08:49.634Z,20.37
2022-10-07T06:09:49.494Z,20.37
2022-10-07T06:10:49.571Z,20.37
2022-10-07T06:11:49.525Z,20.38
2022-10-07T06:12:49.472Z,20.37
2022-10-07T06:13:49.544Z,20.37
2022-10-07T06:14:49.501Z,20.37
2022-10-07T06:15:49.511Z,20.37
2022-10-07T06:16:49.549Z,20.38
2022-10-07T06:17:49.791Z,20.38
2022-10-07T06:18:49.545Z,20.40
2022-10-07T06:19:49.595Z,20.41
2022-10-07T06:20:49.598Z,20.41
2022-10-07T06:21:49.625Z,20.41
2022-10-07T06:22:49.630Z,20.38
2022-10-07T06:23:49.579Z,20.40
2022-10-07T06:24:50.439Z,20.40
2022-10-07T06:25:49.605Z,20.40
2022-10-07T06:26:49.631Z,20.40
2022-10-07T06:27:53.838Z,20.38
2022-10-07T06:28:49.732Z,20.38
2022-10-07T06:29:49.787Z,20.40
2022-10-07T06:30:49.725Z,20.41
2022-10-07T06:31:49.683Z,20.38
2022-10-07T06:32:49.669Z,20.40
2022-10-07T06:33:49.742Z,20.40
2022-10-07T06:34:49.704Z,20.40
2022-10-07T06:35:49.723Z,20.40
2022-10-07T06:36:49.723Z,20.38
2022-10-07T06:37:49.762Z,20.42
2022-10-07T06:38:49.803Z,20.42
2022-10-07T06:39:49.744Z,20.42
2022-10-07T06:40:49.731Z,20.42
2022-10-07T06:41:49.792Z,20.44
2022-10-07T06:42:49.762Z,20.46
2022-10-07T06:43:50.241Z,20.48
2022-10-07T06:44:49.778Z,20.48
2022-10-07T06:45:49.852Z,20.48
2022-10-07T06:46:49.815Z,20.46
2022-10-07T06:47:52.859Z,20.44
2022-10-07T06:48:49.830Z,20.46
2022-10-07T06:49:49.865Z,20.46
2022-10-07T06:50:49.848Z,20.46
2022-10-07T06:51:49.873Z,20.46
2022-10-07T06:52:49.905Z,20.44
2022-10-07T06:53:50.018Z,20.44
2022-10-07T06:54:49.949Z,20.42
2022-10-07T06:55:49.923Z,20.41
2022-10-07T06:56:49.928Z,20.44
2022-10-07T06:57:49.936Z,20.44
2022-10-07T06:58:50.036Z,20.46
2022-10-07T06:59:49.930Z,20.44
2022-10-07T07:00:50.026Z,20.48
2022-10-07T07:01:49.959Z,20.48
2022-10-07T07:02:50.096Z,20.48
2022-10-07T07:03:49.973Z,20.48
2022-10-07T07:04:54.029Z,20.48
2022-10-07T07:05:52.223Z,20.51
2022-10-07T07:06:50.013Z,20.50
2022-10-07T07:07:50.352Z,20.51
2022-10-07T07:08:50.014Z,20.50
2022-10-07T07:09:50.098Z,20.53
2022-10-07T07:10:50.102Z,20.51
2022-10-07T07:11:52.956Z,20.48
2022-10-07T07:12:50.956Z,20.48
2022-10-07T07:13:50.180Z,20.51
2022-10-07T07:14:50.219Z,20.50
2022-10-07T07:15:50.111Z,20.53
2022-10-07T07:16:50.307Z,20.51
2022-10-07T07:17:50.181Z,20.54
2022-10-07T07:18:50.176Z,20.56
2022-10-07T07:19:50.233Z,20.57
2022-10-07T07:20:50.195Z,20.57
2022-10-07T07:21:51.331Z,20.60
2022-10-07T07:22:50.270Z,20.60
2022-10-07T07:23:50.272Z,20.60
2022-10-07T07:24:50.270Z,20.60
2022-10-07T07:25:50.260Z,20.58
2022-10-07T07:26:50.281Z,20.56
2022-10-07T07:27:55.338Z,20.57
2022-10-07T07:28:50.232Z,20.57
2022-10-07T07:29:50.249Z,20.57
2022-10-07T07:30:50.315Z,20.58
2022-10-07T07:31:50.252Z,20.61
2022-10-07T07:32:50.582Z,20.64
2022-10-07T07:33:50.269Z,20.69
2022-10-07T07:34:50.509Z,20.72
2022-10-07T07:35:50.278Z,20.72
2022-10-07T07:36:50.314Z,20.73
2022-10-07T07:37:50.321Z,20.73
2022-10-07T07:38:50.331Z,20.78
2022-10-07T07:39:50.331Z,20.79
2022-10-07T07:40:50.406Z,20.81
2022-10-07T07:41:50.472Z,20.82
2022-10-07T07:42:50.466Z,20.83
2022-10-07T07:43:50.420Z,20.83
2022-10-07T07:44:50.519Z,20.87
2022-10-07T07:45:50.535Z,20.83
2022-10-07T07:46:50.528Z,20.85
2022-10-07T07:47:50.551Z,20.85
2022-10-07T07:48:50.524Z,20.87
2022-10-07T07:49:50.539Z,20.88
2022-10-07T07:50:50.520Z,20.88
2022-10-07T07:51:50.535Z,20.91
2022-10-07T07:52:55.228Z,20.94
2022-10-07T07:53:50.602Z,20.97
2022-10-07T07:54:50.623Z,21.00
2022-10-07T07:55:50.612Z,21.01
2022-10-07T07:56:50.673Z,21.01
2022-10-07T07:57:50.712Z,21.03
2022-10-07T07:58:50.650Z,21.03
2022-10-07T07:59:50.648Z,21.06
2022-10-07T08:00:50.664Z,21.06
2022-10-07T08:01:50.637Z,21.06
2022-10-07T08:02:50.809Z,21.06
2022-10-07T08:03:50.709Z,21.05
2022-10-07T08:04:50.669Z,21.06
2022-10-07T08:05:50.714Z,21.06
2022-10-07T08:06:50.754Z,21.08
2022-10-07T08:07:50.723Z,21.09
2022-10-07T08:08:50.750Z,21.11
2022-10-07T08:09:50.731Z,21.11
2022-10-07T08:10:51.999Z,21.08
2022-10-07T08:11:50.774Z,21.08
2022-10-07T08:12:50.817Z,21.09
2022-10-07T08:13:50.992Z,21.08
2022-10-07T08:14:50.817Z,21.09
2022-10-07T08:15:50.898Z,21.09
2022-10-07T08:16:50.902Z,21.11
2022-10-07T08:17:50.925Z,21.12
2022-10-07T08:18:51.832Z,21.13
2022-10-07T08:19:50.952Z,21.12
2022-10-07T08:20:50.973Z,21.11
2022-10-07T08:21:50.988Z,21.12
2022-10-07T08:22:52.720Z,21.11
2022-10-07T08:23:51.011Z,21.11
2022-10-07T08:24:51.091Z,21.12
2022-10-07T08:25:51.036Z,21.13
2022-10-07T08:26:51.020Z,21.12
2022-10-07T08:27:51.043Z,21.13
2022-10-07T08:28:51.117Z,21.15
2022-10-07T08:29:51.162Z,21.16
2022-10-07T08:30:51.185Z,21.16
2022-10-07T08:31:51.148Z,21.16
2022-10-07T08:32:51.120Z,21.19
2022-10-07T08:33:51.206Z,21.18
2022-10-07T08:34:51.156Z,21.18
2022-10-07T08:35:51.191Z,21.18
2022-10-07T08:36:51.259Z,21.18
2022-10-07T08:37:51.254Z,21.21
2022-10-07T08:38:51.252Z,21.21
2022-10-07T08:39:51.245Z,21.21
2022-10-07T08:40:51.276Z,21.24
2022-10-07T08:41:51.321Z,21.24
2022-10-07T08:42:51.263Z,21.27
2022-10-07T08:43:51.307Z,21.27
2022-10-07T08:44:51.298Z,21.27
2022-10-07T08:45:51.416Z,21.26
2022-10-07T08:46:51.349Z,21.24
2022-10-07T08:47:51.336Z,21.27
2022-10-07T08:48:51.342Z,21.27
2022-10-07T08:49:51.385Z,21.27
2022-10-07T08:50:51.384Z,21.30
2022-10-07T08:51:51.370Z,21.28
2022-10-07T08:52:51.371Z,21.28
2022-10-07T08:53:51.371Z,21.28
2022-10-07T08:54:51.377Z,21.28
2022-10-07T08:55:51.394Z,21.28
2022-10-07T08:56:51.427Z,21.27
2022-10-07T08:57:51.393Z,21.28
2022-10-07T08:58:51.369Z,21.28
2022-10-07T08:59:51.423Z,21.28
2022-10-07T09:00:51.505Z,21.28
2022-10-07T09:01:51.541Z,21.30
2022-10-07T09:02:51.534Z,21.31
2022-10-07T09:03:53.814Z,21.33
2022-10-07T09:04:51.812Z,21.34
2022-10-07T09:05:51.613Z,21.37
2022-10-07T09:08:17.453Z,21.37
2022-10-07T09:09:17.481Z,21.37
2022-10-07T09:10:17.464Z,21.38
2022-10-07T09:11:17.476Z,21.40
2022-10-07T09:12:17.500Z,21.42
2022-10-07T09:13:17.529Z,21.40
2022-10-07T09:14:17.564Z,21.42
2022-10-07T09:15:17.575Z,21.43
2022-10-07T09:16:17.808Z,21.45
2022-10-07T09:17:17.659Z,21.48
2022-10-07T09:18:17.659Z,21.48
2022-10-07T09:19:17.650Z,21.49
2022-10-07T09:20:17.684Z,21.49
2022-10-07T09:21:17.690Z,21.48
2022-10-07T09:22:17.768Z,21.49
2022-10-07T09:23:17.752Z,21.49
2022-10-07T09:24:17.776Z,21.49
2022-10-07T09:25:17.800Z,21.49
2022-10-07T09:26:17.867Z,21.48
2022-10-07T09:27:17.883Z,21.48
2022-10-07T09:28:17.893Z,21.48
2022-10-07T09:29:17.859Z,21.48
2022-10-07T09:30:17.877Z,21.48
2022-10-07T09:31:18.010Z,21.48
2022-10-07T09:32:17.936Z,21.49
2022-10-07T09:33:17.914Z,21.48
2022-10-07T09:34:17.938Z,21.51
2022-10-07T09:35:17.945Z,21.52
2022-10-07T09:36:17.961Z,21.52
2022-10-07T09:37:17.994Z,21.52
2022-10-07T09:38:17.998Z,21.49
2022-10-07T09:39:17.975Z,21.49
2022-10-07T09:40:17.961Z,21.53
2022-10-07T09:41:17.997Z,21.53
2022-10-07T09:42:18.012Z,21.58
2022-10-07T09:43:18.028Z,21.61
2022-10-07T09:44:18.168Z,21.63
2022-10-07T09:45:18.077Z,21.63
2022-10-07T09:46:18.167Z,21.64
2022-10-07T09:47:18.119Z,21.66
2022-10-07T09:48:18.138Z,21.67
2022-10-07T09:49:23.586Z,21.68
2022-10-07T09:50:18.196Z,21.68
2022-10-07T09:51:18.216Z,21.70
2022-10-07T09:52:18.214Z,21.77
2022-10-07T09:53:18.177Z,21.81
2022-10-07T09:54:18.235Z,21.81
2022-10-07T09:55:18.242Z,21.83
2022-10-07T09:56:18.227Z,21.86
2022-10-07T09:57:18.967Z,21.85
2022-10-07T09:58:18.185Z,21.85
2022-10-07T09:59:18.183Z,21.85
2022-10-07T10:00:18.201Z,21.85
2022-10-07T10:01:18.166Z,21.85
2022-10-07T10:02:18.300Z,21.83
2022-10-07T10:03:18.284Z,21.85
2022-10-07T10:04:18.185Z,21.86
2022-10-07T10:05:18.264Z,21.85
2022-10-07T10:06:18.265Z,21.85
2022-10-07T10:07:18.215Z,21.86
2022-10-07T10:08:18.232Z,21.85
2022-10-07T10:09:20.284Z,21.85
2022-10-07T10:10:18.264Z,21.85
2022-10-07T10:11:18.245Z,21.86
2022-10-07T10:12:18.266Z,21.86
2022-10-07T10:13:18.298Z,21.89
2022-10-07T10:14:18.370Z,21.90
2022-10-07T10:15:18.338Z,21.90
2022-10-07T10:16:18.439Z,21.91
2022-10-07T10:17:18.316Z,21.91
2022-10-07T10:18:18.314Z,21.91
2022-10-07T10:19:18.314Z,21.93
2022-10-07T10:20:18.347Z,21.94
2022-10-07T10:21:18.355Z,21.93
2022-10-07T10:22:18.366Z,21.93
2022-10-07T10:23:18.398Z,21.93
2022-10-07T10:24:18.405Z,21.94
2022-10-07T10:25:18.436Z,21.94
2022-10-07T10:26:18.438Z,21.94
2022-10-07T10:27:18.471Z,21.96
2022-10-07T10:28:18.577Z,21.96
2022-10-07T10:29:18.585Z,21.96
2022-10-07T10:30:18.535Z,21.98
2022-10-07T10:31:18.584Z,21.96
2022-10-07T10:32:18.571Z,21.98
2022-10-07T10:33:18.622Z,21.96
2022-10-07T10:34:18.598Z,21.98
2022-10-07T10:35:18.619Z,21.99
2022-10-07T10:36:18.644Z,21.99
2022-10-07T10:37:18.717Z,22.02
2022-10-07T10:38:18.701Z,22.01
2022-10-07T10:39:18.665Z,22.05
2022-10-07T10:40:19.025Z,22.05
2022-10-07T10:41:19.927Z,22.08
2022-10-07T10:42:18.724Z,22.08
2022-10-07T10:43:18.740Z,22.05
2022-10-07T10:44:18.712Z,22.06
2022-10-07T10:45:18.739Z,22.08
2022-10-07T10:46:18.820Z,22.09
2022-10-07T10:47:18.787Z,22.11
2022-10-07T10:48:18.772Z,22.11
2022-10-07T10:49:18.839Z,22.11
2022-10-07T10:50:18.835Z,22.12
2022-10-07T10:51:18.845Z,22.11
2022-10-07T10:52:18.826Z,22.11
2022-10-07T10:53:18.897Z,22.09
2022-10-07T10:54:18.876Z,22.09
2022-10-07T10:55:18.877Z,22.11
2022-10-07T10:56:18.929Z,22.14
2022-10-07T10:57:18.887Z,22.17
2022-10-07T10:58:18.891Z,22.14
2022-10-07T10:59:18.919Z,22.15
2022-10-07T11:00:19.163Z,22.15
2022-10-07T11:01:18.945Z,22.17
2022-10-07T11:02:19.296Z,22.19
2022-10-07T11:03:19.051Z,22.17
2022-10-07T11:04:19.168Z,22.19
2022-10-07T11:05:18.996Z,22.20
2022-10-07T11:06:19.004Z,22.20
2022-10-07T11:07:19.031Z,22.19
2022-10-07T11:08:19.019Z,22.21
2022-10-07T11:09:19.101Z,22.23
2022-10-07T11:10:19.007Z,22.24
2022-10-07T11:11:19.008Z,22.26
2022-10-07T11:12:19.047Z,22.27
2022-10-07T11:13:19.153Z,22.30
2022-10-07T11:14:19.085Z,22.31
2022-10-07T11:15:19.100Z,22.33
2022-10-07T11:16:19.151Z,22.35
2022-10-07T11:17:19.104Z,22.39
2022-10-07T11:18:19.097Z,22.44
2022-10-07T11:19:19.278Z,22.48
2022-10-07T11:20:19.130Z,22.51
2022-10-07T11:21:19.135Z,22.54
2022-10-07T11:22:19.133Z,22.57
2022-10-07T11:23:19.173Z,22.61
2022-10-07T11:24:19.217Z,22.64
2022-10-07T11:25:19.246Z,22.66
2022-10-07T11:26:19.215Z,22.67
2022-10-07T11:27:19.307Z,22.70
2022-10-07T11:28:19.282Z,22.75
2022-10-07T11:29:19.248Z,22.76
2022-10-07T11:30:19.306Z,22.78
2022-10-07T11:31:19.307Z,22.81
2022-10-07T11:32:19.297Z,22.84
2022-10-07T11:33:19.330Z,22.85
2022-10-07T11:34:19.344Z,22.86
2022-10-07T11:35:19.581Z,22.88
2022-10-07T11:36:19.377Z,22.89
2022-10-07T11:37:19.502Z,22.91
2022-10-07T11:38:19.477Z,22.91
2022-10-07T11:39:19.400Z,22.93
2022-10-07T11:40:19.418Z,22.96
2022-10-07T11:41:19.455Z,22.96
2022-10-07T11:42:19.451Z,22.97
2022-10-07T11:43:19.484Z,22.99
2022-10-07T11:44:19.496Z,23.01
2022-10-07T11:45:19.518Z,22.99
2022-10-07T11:46:19.572Z,23.01
2022-10-07T11:47:19.522Z,23.04
2022-10-07T11:48:19.551Z,23.04
2022-10-07T11:49:19.581Z,23.04
2022-10-07T11:50:19.594Z,23.09
2022-10-07T11:51:19.627Z,23.11
2022-10-07T11:52:19.610Z,23.12
2022-10-07T11:53:19.641Z,23.12
2022-10-07T11:54:19.821Z,23.12
2022-10-07T11:55:19.701Z,23.15
2022-10-07T11:56:19.723Z,23.14
2022-10-07T11:57:19.792Z,23.16
2022-10-07T11:58:19.764Z,23.16
2022-10-07T11:59:19.770Z,23.16
2022-10-07T12:00:19.763Z,23.19
2022-10-07T12:01:19.798Z,23.22
2022-10-07T12:02:20.063Z,23.22
2022-10-07T12:03:19.873Z,23.22
2022-10-07T12:04:19.882Z,23.22
2022-10-07T12:05:19.845Z,23.23
2022-10-07T12:06:19.865Z,23.23
2022-10-07T12:07:19.907Z,23.25
2022-10-07T12:08:19.885Z,23.29
2022-10-07T12:09:19.928Z,23.29
2022-10-07T12:10:19.942Z,23.26
2022-10-07T12:11:19.991Z,23.29
2022-10-07T12:12:20.030Z,23.32
2022-10-07T12:13:20.113Z,23.32
2022-10-07T12:14:20.065Z,23.35
2022-10-07T12:15:20.084Z,23.37
2022-10-07T12:16:20.110Z,23.37
2022-10-07T12:17:20.141Z,23.38
2022-10-07T12:18:20.103Z,23.39
2022-10-07T12:19:23.599Z,23.41
2022-10-07T12:20:20.145Z,23.41
2022-10-07T12:21:20.210Z,23.39
2022-10-07T12:22:20.183Z,23.42
2022-10-07T12:23:20.158Z,23.42
2022-10-07T12:24:20.168Z,23.44
2022-10-07T12:25:20.217Z,23.45
2022-10-07T12:26:20.201Z,23.45
2022-10-07T12:27:20.223Z,23.45
2022-10-07T12:28:20.303Z,23.49
2022-10-07T12:29:20.273Z,23.47
2022-10-07T12:30:20.301Z,23.45
2022-10-07T12:31:20.310Z,23.47
2022-10-07T12:32:20.292Z,23.44
2022-10-07T12:33:20.275Z,23.45
2022-10-07T12:34:20.296Z,23.44
2022-10-07T12:35:20.330Z,23.44
2022-10-07T12:36:20.361Z,23.45
2022-10-07T12:37:20.388Z,23.44
2022-10-07T12:38:20.377Z,23.44
2022-10-07T12:39:20.397Z,23.45
2022-10-07T12:40:20.430Z,23.45
2022-10-07T12:41:20.438Z,23.49
2022-10-07T12:42:20.462Z,23.49
2022-10-07T12:43:20.434Z,23.52
2022-10-07T12:44:20.461Z,23.53
2022-10-07T12:45:20.570Z,23.53
2022-10-07T12:46:20.476Z,23.52
2022-10-07T12:47:20.519Z,23.53
2022-10-07T12:48:20.552Z,23.53
2022-10-07T12:49:20.515Z,23.52
2022-10-07T12:50:20.529Z,23.53
2022-10-07T12:51:20.561Z,23.54
2022-10-07T12:52:20.601Z,23.54
2022-10-07T12:53:20.571Z,23.56
2022-10-07T12:54:20.574Z,23.54
2022-10-07T12:55:20.604Z,23.54